Time;durP1;ratioP1;P1;durP2;ratioP2;P2;SDS_P1;SDS_P2;PMS_P1;PMS_P2;Temp;Humidity;BMP_temperature;BMP_pressure;BME280_temperature;BME280_humidity;BME280_pressure;Samples;Min_cycle;Max_cycle;Signal;HPM_P1;HPM_P2
2023/02/14 00:01:56;;;;;;;23.85;12.50;;;;;;;-4.26;78.50;97725.50;5054355;28;20095;-62
2023/02/14 00:04:25;;;;;;;25.83;13.57;;;;;;;-4.22;78.97;97724.81;5054298;28;20514;-62
2023/02/14 00:06:52;;;;;;;30.00;15.18;;;;;;;-4.23;80.04;97727.31;5054112;28;20045;-63
2023/02/14 00:09:20;;;;;;;25.90;14.20;;;;;;;-4.20;79.63;97732.53;5054180;28;20041;-62
2023/02/14 00:11:48;;;;;;;24.83;13.88;;;;;;;-4.22;79.56;97729.91;5054158;28;20045;-63
2023/02/14 00:17:02;;;;;;;24.80;13.38;;;;;;;-4.25;79.55;97732.34;5054151;28;20063;-65
2023/02/14 00:19:30;;;;;;;23.80;13.90;;;;;;;-4.19;80.62;97735.16;5053947;28;20380;-62
2023/02/14 00:22:02;;;;;;;26.48;13.55;;;;;;;-4.19;80.10;97732.59;5053873;28;20083;-64
2023/02/14 00:24:30;;;;;;;25.00;13.60;;;;;;;-4.12;79.58;97732.84;5053774;28;20060;-63
2023/02/14 00:26:58;;;;;;;26.50;12.82;;;;;;;-4.07;79.73;97732.22;5053714;28;20072;-62
2023/02/14 00:29:29;;;;;;;23.33;12.35;;;;;;;-4.14;79.69;97732.78;5053808;28;20064;-61
2023/02/14 00:32:04;;;;;;;27.35;13.68;;;;;;;-4.09;79.40;97740.66;5053818;28;20419;-62
2023/02/14 00:34:38;;;;;;;24.13;13.38;;;;;;;-4.15;78.85;97730.16;5053795;28;20380;-62
2023/02/14 00:37:06;;;;;;;26.35;13.75;;;;;;;-4.20;79.66;97735.09;5053777;28;20087;-61
2023/02/14 00:39:34;;;;;;;25.70;14.23;;;;;;;-4.19;79.48;97734.28;5052995;28;20499;-63
2023/02/14 00:42:01;;;;;;;27.02;14.43;;;;;;;-4.08;79.00;97734.69;5053623;28;20053;-64
2023/02/14 00:44:30;;;;;;;24.10;13.75;;;;;;;-4.04;78.39;97725.47;5053508;28;20487;-63
2023/02/14 00:46:58;;;;;;;23.73;12.70;;;;;;;-4.07;78.58;97724.53;5053484;28;20049;-63
2023/02/14 00:49:26;;;;;;;25.33;13.35;;;;;;;-4.09;78.70;97718.47;5053448;28;20049;-64
2023/02/14 00:51:53;;;;;;;21.75;12.63;;;;;;;-4.13;78.28;97726.00;5053386;28;20131;-63
2023/02/14 00:54:20;;;;;;;24.20;13.30;;;;;;;-4.23;78.21;97723.06;5053381;28;20128;-61
2023/02/14 00:56:48;;;;;;;25.23;13.57;;;;;;;-4.16;77.98;97720.78;5053376;28;20095;-63
2023/02/14 00:59:16;;;;;;;22.95;13.23;;;;;;;-4.18;78.29;97710.47;5053240;28;20048;-64
2023/02/14 01:01:45;;;;;;;27.33;14.65;;;;;;;-4.16;78.71;97701.16;5053259;28;20049;-62
2023/02/14 01:04:12;;;;;;;16.47;9.53;;;;;;;-4.29;78.97;97702.38;5053164;28;20056;-63
2023/02/14 01:06:40;;;;;;;27.85;13.45;;;;;;;-4.45;79.59;97693.25;5053149;28;20049;-64
2023/02/14 01:09:09;;;;;;;27.38;14.45;;;;;;;-4.48;79.97;97688.00;5052995;28;20509;-61
2023/02/14 01:11:36;;;;;;;25.20;13.82;;;;;;;-4.36;79.99;97685.91;5053118;28;20049;-64
2023/02/14 01:14:03;;;;;;;28.83;13.25;;;;;;;-4.28;79.83;97683.66;5052888;28;20053;-62
2023/02/14 01:16:31;;;;;;;26.30;14.63;;;;;;;-4.24;79.79;97690.63;5053044;28;20565;-61
2023/02/14 01:19:01;;;;;;;27.52;15.60;;;;;;;-4.21;80.64;97682.25;5052976;28;20045;-62
2023/02/14 01:21:31;;;;;;;24.75;14.30;;;;;;;-4.18;80.39;97670.44;5052926;28;20045;-64
2023/02/14 01:24:01;;;;;;;27.42;14.27;;;;;;;-4.15;80.22;97679.03;5052941;28;20076;-61
2023/02/14 01:26:29;;;;;;;25.13;14.63;;;;;;;-4.20;80.81;97679.75;5052873;28;20102;-60
2023/02/14 01:28:56;;;;;;;25.45;14.65;;;;;;;-4.17;81.02;97681.53;5052869;28;20057;-64
2023/02/14 01:31:25;;;;;;;28.42;15.77;;;;;;;-4.23;81.28;97671.97;5052872;28;20045;-61
2023/02/14 01:33:54;;;;;;;25.10;15.00;;;;;;;-4.19;81.79;97672.94;5052925;28;20087;-63
2023/02/14 01:36:24;;;;;;;25.70;14.75;;;;;;;-4.13;81.19;97677.44;5052912;28;20056;-63
2023/02/14 01:38:53;;;;;;;26.52;14.15;;;;;;;-4.04;81.04;97667.53;5052901;28;20041;-62
2023/02/14 01:41:21;;;;;;;27.85;14.00;;;;;;;-3.97;80.61;97668.66;5052844;28;20056;-61
2023/02/14 01:43:59;;;;;;;31.23;15.98;;;;;;;-4.01;80.86;97661.69;5052739;28;20041;-62
2023/02/14 01:46:28;;;;;;;28.27;15.65;;;;;;;-3.97;80.72;97663.53;5052764;28;20076;-61
2023/02/14 01:49:02;;;;;;;23.92;14.40;;;;;;;-3.98;80.83;97662.66;5052669;28;20045;-62
2023/02/14 01:51:32;;;;;;;27.27;14.75;;;;;;;-3.90;80.97;97655.28;5055989;28;20049;-63
2023/02/14 01:54:00;;;;;;;27.40;14.88;;;;;;;-3.85;80.64;97655.44;5056719;28;20071;-63
2023/02/14 01:56:34;;;;;;;30.17;15.27;;;;;;;-3.87;80.56;97650.28;5056684;28;20136;-61
2023/02/14 01:59:06;;;;;;;23.27;13.93;;;;;;;-3.89;80.28;97640.81;5056599;28;20562;-63
2023/02/14 02:01:34;;;;;;;33.65;13.35;;;;;;;-3.89;80.27;97638.25;5056567;28;20127;-65
2023/02/14 02:04:09;;;;;;;25.98;13.68;;;;;;;-3.84;80.45;97632.50;5056467;28;20505;-62
2023/02/14 02:06:40;;;;;;;27.52;14.32;;;;;;;-3.90;80.42;97633.94;5056548;28;20700;-62
2023/02/14 02:09:15;;;;;;;24.05;14.07;;;;;;;-3.90;80.66;97633.94;5056428;28;20080;-63
2023/02/14 02:11:43;;;;;;;24.60;14.05;;;;;;;-3.94;80.87;97631.25;5056401;28;20136;-64
2023/02/14 02:14:14;;;;;;;27.38;13.75;;;;;;;-3.90;80.92;97633.94;5056229;28;20132;-66
2023/02/14 02:17:03;;;;;;;27.75;14.80;;;;;;;-3.83;80.31;97630.78;5056438;28;20128;-65
2023/02/14 02:20:00;;;;;;;25.40;13.32;;;;;;;-3.82;80.16;97625.72;5056185;28;20128;-64
2023/02/14 02:23:06;;;;;;;26.55;13.23;;;;;;;-3.83;79.94;97618.00;5056226;28;20050;-65
2023/02/14 02:25:56;;;;;;;29.38;13.32;;;;;;;-3.77;80.21;97614.81;5034963;28;20107;-62
2023/02/14 02:28:43;;;;;;;23.77;14.43;;;;;;;-3.73;79.66;97622.63;5056028;28;20057;-61
2023/02/14 02:31:35;;;;;;;28.17;14.38;;;;;;;-3.72;79.75;97616.72;5056029;28;20041;-64
2023/02/14 02:34:22;;;;;;;29.35;15.02;;;;;;;-3.82;79.28;97607.81;5056001;28;20071;-65
2023/02/14 02:37:08;;;;;;;27.17;14.20;;;;;;;-3.82;79.69;97595.03;5055940;28;20545;-64
2023/02/14 02:39:46;;;;;;;29.95;14.57;;;;;;;-3.92;79.28;97590.41;5055953;28;20101;-61
2023/02/14 02:42:28;;;;;;;27.77;13.68;;;;;;;-3.96;79.56;97594.56;5055828;28;20135;-63
2023/02/14 02:45:02;;;;;;;29.77;15.07;;;;;;;-4.06;79.52;97583.09;5055871;28;20487;-63
2023/02/14 02:47:35;;;;;;;23.33;12.85;;;;;;;-3.98;79.63;97593.63;5055679;28;20045;-63
2023/02/14 02:53:08;;;;;;;23.80;13.05;;;;;;;-4.03;79.30;97597.72;5044575;28;20471;-64
2023/02/14 02:58:33;;;;;;;26.17;14.75;;;;;;;-4.00;79.21;97585.03;5055941;28;20053;-63
2023/02/14 03:01:03;;;;;;;28.42;14.55;;;;;;;-3.93;79.73;97586.13;5055452;28;20503;-63
2023/02/14 03:06:17;;;;;;;24.60;13.43;;;;;;;-3.92;79.00;97585.28;5055505;28;20103;-63
2023/02/14 03:08:45;;;;;;;24.52;14.35;;;;;;;-3.94;79.04;97579.28;5055372;28;20137;-61
2023/02/14 03:11:14;;;;;;;30.58;16.00;;;;;;;-4.00;79.71;97594.38;5055346;28;20128;-62
2023/02/14 03:14:05;;;;;;;24.33;14.68;;;;;;;-4.01;79.61;97592.66;5055120;28;20111;-62
2023/02/14 03:16:48;;;;;;;28.75;14.55;;;;;;;-3.95;79.58;97580.06;5055154;28;20045;-62
2023/02/14 03:22:43;;;;;;;26.10;14.68;;;;;;;-4.00;79.83;97582.47;5055228;28;20072;-64
2023/02/14 03:25:23;;;;;;;24.95;13.20;;;;;;;-4.00;79.65;97586.72;5055348;28;20068;-63
2023/02/14 03:27:58;;;;;;;30.45;16.85;;;;;;;-3.99;79.68;97589.31;5055006;28;20144;-64
2023/02/14 03:30:37;;;;;;;25.52;13.57;;;;;;;-4.00;79.31;97592.72;5055184;28;20628;-64
2023/02/14 03:33:09;;;;;;;26.95;14.38;;;;;;;-4.07;79.11;97588.16;5054943;28;20128;-64
2023/02/14 03:35:40;;;;;;;28.60;14.23;;;;;;;-4.04;79.08;97583.16;5054890;28;20197;-64
2023/02/14 03:38:11;;;;;;;26.75;13.95;;;;;;;-4.04;79.97;97577.19;5054789;28;20045;-61
2023/02/14 03:40:48;;;;;;;28.50;14.95;;;;;;;-4.01;80.05;97572.19;5054847;28;20049;-62
2023/02/14 03:43:21;;;;;;;31.45;16.00;;;;;;;-4.01;79.58;97574.75;5054757;28;20052;-65
2023/02/14 03:45:53;;;;;;;30.58;15.48;;;;;;;-3.98;79.30;97565.50;5054643;28;20430;-61
2023/02/14 03:48:26;;;;;;;25.50;13.88;;;;;;;-3.97;78.74;97567.22;5054603;28;20060;-64
2023/02/14 03:50:55;;;;;;;25.92;13.57;;;;;;;-4.04;78.68;97554.19;5054547;28;20098;-63
2023/02/14 03:53:27;;;;;;;22.90;12.60;;;;;;;-4.07;78.61;97555.81;5054681;28;20049;-65
2023/02/14 03:56:02;;;;;;;27.80;14.77;;;;;;;-4.08;78.83;97566.84;5054441;28;20041;-65
2023/02/14 03:58:34;;;;;;;26.65;13.48;;;;;;;-4.12;78.19;97571.78;5054365;28;20080;-64
2023/02/14 04:01:09;;;;;;;24.17;13.27;;;;;;;-4.26;78.34;97569.59;5054490;28;20080;-62
2023/02/14 04:03:40;;;;;;;23.55;12.98;;;;;;;-4.27;78.57;97565.31;5054299;28;20041;-63
2023/02/14 04:06:08;;;;;;;25.90;14.85;;;;;;;-4.33;78.70;97560.81;5054316;28;20055;-65
2023/02/14 04:08:35;;;;;;;26.00;13.38;;;;;;;-4.35;78.97;97559.91;5054154;28;20514;-64
2023/02/14 04:11:05;;;;;;;25.42;13.07;;;;;;;-4.33;79.26;97555.72;5054177;28;20115;-63
2023/02/14 04:13:32;;;;;;;;;;;;;;;-4.42;79.42;97557.94;5053273;28;20052;-61
2023/02/14 04:15:59;;;;;;;24.80;13.30;;;;;;;-4.52;79.63;97546.50;5053955;28;20390;-61
2023/02/14 04:21:13;;;;;;;26.15;14.15;;;;;;;-4.57;80.17;97540.34;5054172;28;20525;-62
2023/02/14 04:23:40;;;;;;;25.02;13.45;;;;;;;-4.64;80.27;97536.69;5053898;28;20051;-62
2023/02/14 04:26:10;;;;;;;25.40;14.05;;;;;;;-4.63;80.56;97542.66;5053883;28;20491;-61
2023/02/14 04:28:38;;;;;;;26.92;13.88;;;;;;;-4.63;80.23;97533.34;5053819;28;20053;-60
2023/02/14 04:31:06;;;;;;;25.90;13.40;;;;;;;-4.66;80.02;97534.88;5053730;28;20045;-60
2023/02/14 04:33:34;;;;;;;22.92;12.77;;;;;;;-4.66;80.66;97528.09;5053671;28;20136;-64
2023/02/14 04:36:01;;;;;;;24.60;13.07;;;;;;;-4.76;80.74;97526.88;5053665;28;20048;-63
2023/02/14 04:38:29;;;;;;;21.05;11.68;;;;;;;-4.80;80.31;97519.91;5053711;28;20055;-64
2023/02/14 04:40:56;;;;;;;18.50;11.32;;;;;;;-4.75;80.42;97515.84;5053719;28;20045;-64
2023/02/14 04:43:25;;;;;;;22.38;11.50;;;;;;;-4.70;79.83;97513.44;5053578;28;20045;-63
2023/02/14 04:45:52;;;;;;;19.38;11.55;;;;;;;-4.70;79.73;97518.56;5053429;28;20088;-63
2023/02/14 04:48:20;;;;;;;19.50;11.93;;;;;;;-4.78;80.19;97517.41;5053407;28;20063;-65
2023/02/14 04:50:52;;;;;;;23.45;11.20;;;;;;;-4.79;80.38;97513.13;5053552;28;20507;-60
2023/02/14 04:53:20;;;;;;;19.80;11.00;;;;;;;-4.86;80.39;97506.91;5053425;28;20049;-62
2023/02/14 04:55:49;;;;;;;27.40;13.30;;;;;;;-4.88;79.76;97521.31;5053385;28;20139;-61
2023/02/14 04:58:16;;;;;;;22.75;11.38;;;;;;;-4.93;79.75;97517.69;5053454;28;20088;-62
2023/02/14 05:00:45;;;;;;;24.17;11.25;;;;;;;-4.93;79.56;97522.78;5053396;28;20076;-63
2023/02/14 05:03:12;;;;;;;18.67;10.90;;;;;;;-4.95;79.27;97518.50;5053222;28;20052;-63
2023/02/14 05:05:44;;;;;;;23.27;11.63;;;;;;;-5.02;79.45;97523.31;5053383;28;20049;-62
2023/02/14 05:08:13;;;;;;;22.85;11.55;;;;;;;-5.07;79.47;97513.78;5053066;28;20087;-63
2023/02/14 05:10:40;;;;;;;26.27;11.00;;;;;;;-5.05;79.89;97521.50;5053069;28;20045;-62
2023/02/14 05:13:08;;;;;;;25.83;10.60;;;;;;;-5.12;79.90;97519.53;5053115;28;20052;-64
2023/02/14 05:15:35;;;;;;;20.90;10.88;;;;;;;-5.15;80.27;97520.25;5053181;28;20053;-64
2023/02/14 05:18:04;;;;;;;22.70;11.20;;;;;;;-5.12;80.54;97524.63;5053156;28;20120;-61
2023/02/14 05:20:33;;;;;;;21.67;11.38;;;;;;;-5.08;80.99;97521.38;5053058;28;20483;-61
2023/02/14 05:23:02;;;;;;;29.55;17.00;;;;;;;-5.05;81.08;97526.63;5052995;28;20482;-63
2023/02/14 05:25:29;;;;;;;23.70;12.20;;;;;;;-5.04;81.17;97530.03;5052610;28;20045;-62
2023/02/14 05:27:57;;;;;;;23.98;12.70;;;;;;;-4.96;81.08;97533.75;5052952;28;20044;-61
2023/02/14 05:30:26;;;;;;;21.10;12.77;;;;;;;-4.92;80.71;97516.88;5052845;28;20491;-64
2023/02/14 05:32:54;;;;;;;28.23;11.75;;;;;;;-4.84;80.42;97526.56;5052940;28;20453;-64
2023/02/14 05:35:23;;;;;;;24.77;13.73;;;;;;;-4.74;80.21;97514.16;5052871;28;20080;-64
2023/02/14 05:37:50;;;;;;;24.77;10.80;;;;;;;-4.67;80.06;97511.00;5052865;28;20059;-64
2023/02/14 05:40:18;;;;;;;18.83;10.98;;;;;;;-4.61;79.39;97506.16;5052906;28;20049;-63
2023/02/14 05:42:45;;;;;;;21.38;11.13;;;;;;;-4.58;79.02;97507.94;5052758;28;20411;-63
2023/02/14 05:45:13;;;;;;;29.08;11.95;;;;;;;-4.58;78.48;97508.81;5052761;28;20052;-64
2023/02/14 05:47:40;;;;;;;21.10;12.00;;;;;;;-4.62;78.13;97506.09;5052731;28;20045;-61
2023/02/14 05:50:08;;;;;;;26.60;11.32;;;;;;;-4.60;78.20;97507.88;5052549;28;20139;-64
2023/02/14 05:52:38;;;;;;;20.23;10.82;;;;;;;-4.62;78.28;97511.19;5052855;28;20085;-61
2023/02/14 05:55:06;;;;;;;18.35;9.02;;;;;;;-4.52;78.78;97507.31;5052772;28;20041;-61
2023/02/14 05:57:33;;;;;;;20.83;11.55;;;;;;;-3.65;79.20;97515.47;5052796;28;20048;-61
2023/02/14 06:00:00;;;;;;;19.27;10.65;;;;;;;-2.42;75.82;97511.59;5052619;28;20437;-63
2023/02/14 06:02:28;;;;;;;19.30;9.85;;;;;;;-1.05;72.15;97509.13;5052725;28;20089;-61
2023/02/14 06:04:55;;;;;;;21.92;9.52;;;;;;;0.53;66.88;97509.78;5052814;28;20495;-64
2023/02/14 06:07:22;;;;;;;17.10;9.65;;;;;;;2.09;62.41;97508.53;5052594;28;20453;-66
2023/02/14 06:09:51;;;;;;;15.60;9.25;;;;;;;3.40;55.73;97509.66;5052434;28;20053;-66
2023/02/14 06:12:18;;;;;;;12.75;8.43;;;;;;;4.68;52.83;97507.53;5052558;28;20044;-67
2023/02/14 06:14:45;;;;;;;12.73;8.50;;;;;;;5.86;48.11;97492.66;5052352;28;20053;-62
2023/02/14 06:17:13;;;;;;;13.95;8.48;;;;;;;6.85;45.04;97493.88;5052633;28;20128;-63
2023/02/14 06:19:43;;;;;;;13.93;9.73;;;;;;;7.68;43.56;97488.75;5052484;28;20495;-66
2023/02/14 06:22:12;;;;;;;18.10;11.25;;;;;;;8.64;41.39;97503.22;5052666;28;20565;-65
2023/02/14 06:24:39;;;;;;;13.88;9.30;;;;;;;9.28;39.82;97500.44;5052478;28;20133;-66
2023/02/14 06:27:08;;;;;;;15.00;9.68;;;;;;;9.99;38.41;97492.16;5052526;28;20045;-67
2023/02/14 06:29:35;;;;;;;14.68;9.93;;;;;;;10.63;37.52;97487.34;5052579;28;20048;-64
2023/02/14 06:32:05;;;;;;;16.40;10.63;;;;;;;11.38;36.30;97484.63;5052375;28;20080;-62
2023/02/14 06:34:33;;;;;;;15.50;12.02;;;;;;;11.96;35.28;97487.47;5052414;28;20047;-61
2023/02/14 06:37:01;;;;;;;15.50;10.90;;;;;;;12.69;34.33;97493.19;5053133;28;20049;-63
2023/02/14 06:39:28;;;;;;;18.05;11.25;;;;;;;13.42;33.12;97494.38;5055976;28;20067;-67
2023/02/14 06:41:55;;;;;;;17.35;11.13;;;;;;;13.93;32.13;97481.25;5055866;28;20547;-64
2023/02/14 06:44:24;;;;;;;15.93;10.30;;;;;;;14.42;31.31;97482.94;5055848;28;20194;-67
2023/02/14 06:46:51;;;;;;;14.95;11.05;;;;;;;14.87;30.79;97483.84;5055780;28;20049;-64
2023/02/14 06:49:18;;;;;;;14.30;10.88;;;;;;;15.24;29.77;97484.09;5055621;28;20081;-66
2023/02/14 06:51:46;;;;;;;16.38;10.65;;;;;;;15.50;29.65;97476.88;5055655;28;20049;-66
2023/02/14 06:54:13;;;;;;;13.57;10.02;;;;;;;16.03;29.61;97488.63;5055627;28;20120;-64
2023/02/14 06:56:40;;;;;;;13.18;10.38;;;;;;;16.52;27.62;97489.94;5055666;28;20483;-63
2023/02/14 06:59:07;;;;;;;14.13;10.40;;;;;;;16.20;28.48;97483.50;5055526;28;20084;-65
2023/02/14 07:01:36;;;;;;;14.38;11.43;;;;;;;15.94;28.84;97489.00;5055609;28;20080;-67
2023/02/14 07:04:03;;;;;;;22.00;13.27;;;;;;;15.99;29.14;97478.28;5055570;28;20049;-63
2023/02/14 07:06:31;;;;;;;16.13;12.35;;;;;;;16.03;28.47;97479.84;5055452;28;20080;-67
2023/02/14 07:08:58;;;;;;;18.25;11.95;;;;;;;16.09;28.47;97471.66;5055388;28;20041;-66
2023/02/14 07:11:27;;;;;;;15.98;12.45;;;;;;;16.80;27.98;97479.84;5055304;28;20049;-64
2023/02/14 07:13:54;;;;;;;15.40;12.32;;;;;;;16.24;28.23;97480.66;5055122;28;20094;-66
2023/02/14 07:16:21;;;;;;;14.60;11.40;;;;;;;15.83;28.36;97472.81;5055294;28;20045;-64
2023/02/14 07:18:50;;;;;;;15.38;12.20;;;;;;;15.92;28.93;97467.97;5055436;28;20045;-65
2023/02/14 07:21:18;;;;;;;15.43;11.43;;;;;;;16.13;27.71;97467.09;5055200;28;20053;-67
2023/02/14 07:23:46;;;;;;;14.52;10.70;;;;;;;16.09;28.88;97471.66;5055107;28;20041;-65
2023/02/14 07:26:16;;;;;;;16.70;11.85;;;;;;;16.40;27.81;97469.38;5055122;28;20102;-64
2023/02/14 07:28:44;;;;;;;16.73;12.18;;;;;;;16.93;27.69;97469.53;5055082;28;20076;-65
2023/02/14 07:31:15;;;;;;;17.08;11.57;;;;;;;17.33;26.14;97463.22;5055096;28;20049;-66
2023/02/14 07:33:42;;;;;;;15.65;11.38;;;;;;;16.89;25.43;97460.88;5055345;28;20465;-65
2023/02/14 07:36:11;;;;;;;16.65;11.68;;;;;;;16.67;24.85;97461.06;5054831;28;20055;-65
2023/02/14 07:38:39;;;;;;;16.85;11.32;;;;;;;15.83;26.36;97457.81;5054745;28;20049;-66
2023/02/14 07:41:06;;;;;;;15.80;11.43;;;;;;;15.24;27.21;97465.66;5054871;28;20549;-63
2023/02/14 07:43:34;;;;;;;15.10;10.73;;;;;;;15.02;26.57;97459.50;5054743;28;20045;-65
2023/02/14 07:46:02;;;;;;;15.95;11.15;;;;;;;14.55;27.79;97463.09;5054688;28;20495;-64
2023/02/14 07:48:30;;;;;;;15.52;11.27;;;;;;;14.46;28.92;97474.00;5054420;28;20045;-65
2023/02/14 07:50:57;;;;;;;15.32;11.13;;;;;;;14.76;27.95;97474.56;5054594;28;20048;-62
2023/02/14 07:53:27;;;;;;;16.38;11.05;;;;;;;14.28;28.78;97482.56;5054599;28;20452;-66
2023/02/14 07:55:54;;;;;;;14.43;10.43;;;;;;;13.71;28.95;97477.59;5054529;28;20095;-65
2023/02/14 07:58:22;;;;;;;17.00;11.88;;;;;;;13.33;30.64;97490.31;5054504;28;20045;-63
2023/02/14 08:00:50;;;;;;;14.63;11.10;;;;;;;13.61;30.36;97486.75;5054373;28;20128;-65
2023/02/14 08:03:17;;;;;;;15.77;10.82;;;;;;;14.12;29.38;97487.50;5054371;28;20044;-63
2023/02/14 08:05:55;;;;;;;17.23;11.40;;;;;;;13.73;29.75;97475.75;5054634;28;20131;-63
2023/02/14 08:08:26;;;;;;;14.07;10.38;;;;;;;13.35;29.51;97481.44;5054209;28;20049;-65
2023/02/14 08:10:53;;;;;;;13.68;10.82;;;;;;;13.45;30.54;97476.72;5054074;28;20513;-63
2023/02/14 08:13:21;;;;;;;16.00;10.40;;;;;;;13.97;29.43;97488.09;5054074;28;20049;-63
2023/02/14 08:18:40;;;;;;;16.83;11.93;;;;;;;13.12;30.54;97488.31;5048393;28;20110;-63
2023/02/14 08:21:10;;;;;;;13.88;11.18;;;;;;;12.75;31.62;97471.16;5053976;28;20085;-63
2023/02/14 08:23:39;;;;;;;18.73;11.65;;;;;;;12.91;31.07;97475.91;5054150;28;20487;-65
2023/02/14 08:26:06;;;;;;;15.38;11.18;;;;;;;12.67;31.20;97476.63;5053865;28;20067;-63
2023/02/14 08:28:34;;;;;;;16.08;11.05;;;;;;;12.27;32.23;97462.97;5053820;28;20049;-63
2023/02/14 08:31:01;;;;;;;19.58;11.50;;;;;;;11.94;33.26;97453.41;5053722;28;20053;-65
2023/02/14 08:33:28;;;;;;;15.27;11.50;;;;;;;11.76;33.35;97454.78;5053832;28;20053;-65
2023/02/14 08:35:56;;;;;;;19.15;11.40;;;;;;;11.40;34.50;97465.38;5053809;28;20049;-64
2023/02/14 08:38:24;;;;;;;17.10;10.55;;;;;;;10.99;34.00;97455.97;5053699;28;20123;-65
2023/02/14 08:40:53;;;;;;;17.70;11.55;;;;;;;10.34;35.44;97458.28;5053666;28;20098;-64
2023/02/14 08:43:20;;;;;;;15.57;11.00;;;;;;;10.20;36.35;97458.59;5053654;28;20446;-64
2023/02/14 08:45:49;;;;;;;14.85;10.45;;;;;;;10.32;36.84;97473.16;5053675;28;20491;-64
2023/02/14 08:48:16;;;;;;;18.05;10.98;;;;;;;9.66;36.82;97456.22;5053531;28;20053;-63
2023/02/14 08:50:44;;;;;;;14.90;10.30;;;;;;;9.48;37.77;97463.50;5053402;28;20053;-65
2023/02/14 08:53:12;;;;;;;16.02;10.25;;;;;;;9.49;37.68;97467.00;5053408;28;20132;-62
2023/02/14 08:55:40;;;;;;;16.15;10.07;;;;;;;9.48;37.68;97458.28;5053478;28;20087;-65
2023/02/14 08:58:09;;;;;;;13.80;9.70;;;;;;;9.50;37.46;97460.00;5053349;28;20392;-63
2023/02/14 09:00:36;;;;;;;16.05;9.52;;;;;;;9.42;37.25;97455.78;5052767;28;20090;-62
2023/02/14 09:03:04;;;;;;;15.98;9.65;;;;;;;9.35;38.40;97459.41;5053273;28;20049;-65
2023/02/14 09:05:32;;;;;;;15.35;8.98;;;;;;;9.27;37.74;97459.53;5053540;28;20138;-63
2023/02/14 09:07:59;;;;;;;13.48;9.07;;;;;;;9.11;37.31;97461.56;5053234;28;20135;-62
2023/02/14 09:10:27;;;;;;;13.95;9.80;;;;;;;9.04;38.36;97452.13;5053076;28;20057;-63
2023/02/14 09:12:55;;;;;;;18.58;9.77;;;;;;;9.09;38.96;97451.16;5053222;28;20479;-65
2023/02/14 09:15:23;;;;;;;15.25;8.95;;;;;;;9.33;37.65;97456.81;5052986;28;20132;-62
2023/02/14 09:17:51;;;;;;;15.30;9.55;;;;;;;9.15;38.48;97457.16;5053133;28;20128;-64
2023/02/14 09:20:18;;;;;;;13.82;9.32;;;;;;;9.30;38.55;97451.66;5053105;28;20080;-64
2023/02/14 09:22:45;;;;;;;15.40;9.38;;;;;;;9.22;38.01;97453.56;5052952;28;20482;-65
2023/02/14 09:25:12;;;;;;;15.00;9.73;;;;;;;9.20;38.05;97456.19;5053018;28;20049;-65
2023/02/14 09:27:40;;;;;;;14.23;8.68;;;;;;;9.30;37.82;97463.88;5052977;28;20045;-63
2023/02/14 09:30:09;;;;;;;15.25;9.25;;;;;;;9.35;37.78;97460.28;5052949;28;20049;-61
2023/02/14 09:32:40;;;;;;;14.20;9.27;;;;;;;9.29;37.53;97470.84;5052903;28;20411;-64
2023/02/14 09:37:52;;;;;;;14.40;9.40;;;;;;;9.16;37.67;97457.16;5053015;28;20550;-66
2023/02/14 09:40:20;;;;;;;13.25;8.45;;;;;;;9.18;38.15;97463.19;5052916;28;20483;-65
2023/02/14 09:42:56;;;;;;;13.30;8.30;;;;;;;9.25;38.24;97477.00;5052811;28;20045;-67
2023/02/14 09:45:26;;;;;;;13.93;8.48;;;;;;;8.89;37.98;97466.28;5052885;28;20076;-64
2023/02/14 09:48:00;;;;;;;14.15;8.57;;;;;;;8.71;38.45;97460.50;5052850;28;20487;-65
2023/02/14 09:50:33;;;;;;;16.10;8.68;;;;;;;8.68;39.39;97469.22;5052831;28;20041;-63
2023/02/14 09:53:05;;;;;;;12.38;8.48;;;;;;;8.56;38.58;97451.16;5052780;28;20132;-63
2023/02/14 09:55:40;;;;;;;13.63;8.30;;;;;;;8.71;39.31;97453.53;5052730;28;20053;-62
2023/02/14 09:58:16;;;;;;;13.02;8.18;;;;;;;8.91;39.13;97454.94;5052703;28;20068;-63
2023/02/14 10:00:47;;;;;;;13.88;9.02;;;;;;;8.77;38.57;97442.13;5052644;28;20060;-65
2023/02/14 10:03:28;;;;;;;;;;;;;;;8.90;39.19;97434.09;5053170;28;20436;-64
2023/02/14 10:06:03;;;;;;;12.50;8.05;;;;;;;8.80;39.01;97436.00;5050809;28;19960;-65
2023/02/14 10:08:47;;;;;;;10.90;8.05;;;;;;;8.75;38.40;97433.47;5052582;28;20056;-64
2023/02/14 10:11:19;;;;;;;13.13;8.90;;;;;;;8.62;39.09;97418.91;5053727;28;20061;-65
2023/02/14 10:13:51;;;;;;;11.55;7.93;;;;;;;8.74;39.25;97408.28;5056423;28;20045;-63
2023/02/14 10:16:24;;;;;;;13.15;8.40;;;;;;;8.74;38.46;97399.56;5056357;28;20048;-65
2023/02/14 10:18:57;;;;;;;11.95;8.35;;;;;;;8.90;38.39;97394.94;5056406;28;20597;-63
2023/02/14 10:21:31;;;;;;;14.75;8.75;;;;;;;8.91;39.51;97392.31;5056285;28;20135;-64
2023/02/14 10:24:04;;;;;;;14.68;8.68;;;;;;;8.68;38.82;97403.16;5056357;28;20045;-64
2023/02/14 10:26:38;;;;;;;11.90;8.00;;;;;;;8.70;38.92;97389.19;5056238;28;20049;-65
2023/02/14 10:29:09;;;;;;;10.70;8.35;;;;;;;8.67;38.96;97381.41;5056239;28;20491;-63
2023/02/14 10:31:43;;;;;;;13.25;8.85;;;;;;;8.60;39.13;97385.00;5056002;28;20591;-63
2023/02/14 10:34:21;;;;;;;13.30;8.77;;;;;;;8.72;40.60;97392.63;5056006;28;20049;-63
2023/02/14 10:37:01;;;;;;;13.27;7.80;;;;;;;8.96;38.23;97393.09;5056057;28;20491;-62
2023/02/14 10:39:47;;;;;;;13.68;8.05;;;;;;;8.90;38.44;97381.91;5056093;28;20053;-65
2023/02/14 10:42:23;;;;;;;13.75;8.48;;;;;;;8.97;38.42;97376.53;5055864;28;20059;-62
2023/02/14 10:45:02;;;;;;;13.77;7.93;;;;;;;9.17;37.90;97380.53;5055865;28;20053;-64
2023/02/14 10:47:40;;;;;;;10.07;7.75;;;;;;;9.09;38.22;97383.28;5055850;28;20091;-65
2023/02/14 10:50:17;;;;;;;15.27;8.63;;;;;;;8.88;37.71;97374.09;5055625;28;20076;-63
2023/02/14 10:52:56;;;;;;;12.23;8.15;;;;;;;8.67;38.31;97375.34;5055747;28;20502;-65
2023/02/14 10:55:27;;;;;;;11.77;8.50;;;;;;;8.62;38.50;97378.03;5055740;28;20045;-63
2023/02/14 10:57:57;;;;;;;13.15;8.73;;;;;;;8.52;39.03;97376.44;5055612;28;20128;-63
2023/02/14 11:00:28;;;;;;;12.70;8.15;;;;;;;8.46;39.36;97385.22;5055734;28;20052;-64
2023/02/14 11:02:59;;;;;;;13.20;9.35;;;;;;;8.70;39.68;97365.72;5055568;28;20074;-65
2023/02/14 11:05:34;;;;;;;13.13;7.80;;;;;;;8.65;38.96;97370.16;5055491;28;20077;-64
2023/02/14 11:08:14;;;;;;;12.55;8.50;;;;;;;8.79;38.99;97354.25;5055547;28;20466;-64
2023/02/14 11:10:42;;;;;;;13.98;9.00;;;;;;;8.84;38.80;97360.25;5055310;28;20045;-64
2023/02/14 11:13:28;;;;;;;11.75;7.97;;;;;;;8.90;38.35;97358.41;5055239;28;20120;-63
2023/02/14 11:15:59;;;;;;;13.18;8.25;;;;;;;8.95;38.13;97372.25;5055355;28;20057;-64
2023/02/14 11:18:31;;;;;;;15.18;8.93;;;;;;;8.96;37.24;97363.53;5055234;28;20558;-64
2023/02/14 11:21:19;;;;;;;11.93;7.90;;;;;;;8.94;38.06;97354.88;5055330;28;20052;-65
2023/02/14 11:23:51;;;;;;;12.30;7.63;;;;;;;9.02;37.32;97354.72;5054417;28;20422;-64
2023/02/14 11:26:24;;;;;;;13.73;8.00;;;;;;;8.67;37.57;97357.94;5055086;28;20167;-65
2023/02/14 11:28:59;;;;;;;12.02;8.00;;;;;;;8.49;38.00;97347.78;5055050;28;20099;-65
2023/02/14 11:31:37;;;;;;;12.40;9.02;;;;;;;8.55;37.57;97347.72;5054922;28;20488;-65
2023/02/14 11:34:19;;;;;;;13.45;7.75;;;;;;;8.39;37.80;97350.53;5055026;28;20479;-63
2023/02/14 11:36:46;;;;;;;13.88;7.97;;;;;;;8.39;37.71;97340.13;5054890;28;20119;-62
2023/02/14 11:39:29;;;;;;;14.13;8.63;;;;;;;8.45;37.60;97342.63;5054821;28;20128;-65
2023/02/14 11:41:59;;;;;;;12.68;7.80;;;;;;;8.47;38.14;97329.56;5054747;28;20056;-64
2023/02/14 11:44:29;;;;;;;11.05;7.97;;;;;;;8.64;38.03;97334.50;5054760;28;20049;-64
2023/02/14 11:46:57;;;;;;;13.70;7.57;;;;;;;8.78;38.04;97331.66;5054728;28;20049;-63
2023/02/14 11:49:39;;;;;;;11.85;7.53;;;;;;;8.89;37.63;97323.66;5054757;28;20049;-62
2023/02/14 11:52:32;;;;;;;13.32;7.55;;;;;;;8.98;37.70;97328.66;5054612;28;20076;-64
2023/02/14 11:55:03;;;;;;;12.13;8.45;;;;;;;8.99;37.12;97326.94;5054515;28;20053;-65
2023/02/14 11:57:37;;;;;;;13.30;8.07;;;;;;;9.01;37.55;97316.47;5054730;28;20045;-64
2023/02/14 12:00:15;;;;;;;10.27;7.95;;;;;;;8.64;37.20;97315.41;5054670;28;20056;-64
2023/02/14 12:02:46;;;;;;;16.52;9.00;;;;;;;8.68;37.54;97302.28;5054444;28;20080;-65